createdAt,value
2022-09-06T00:03:56.160Z,69.64
2022-09-06T00:08:57.899Z,71.06
2022-09-06T00:13:59.645Z,70.06
2022-09-06T00:19:01.340Z,71.94
2022-09-06T00:24:03.998Z,72.71
2022-09-06T00:29:06.660Z,73.80
2022-09-06T00:34:08.392Z,72.80
2022-09-06T00:39:10.180Z,74.11
2022-09-06T00:44:12.130Z,78.59
2022-09-06T00:49:39.032Z,75.30
2022-09-06T00:54:41.911Z,77.79
2022-09-06T00:59:45.820Z,76.32
2022-09-06T01:04:49.187Z,75.87
2022-09-06T01:10:08.890Z,76.76
2022-09-06T01:15:18.936Z,77.71
2022-09-06T01:20:32.462Z,77.00
2022-09-06T01:26:01.203Z,78.67
2022-09-06T01:31:23.448Z,79.68
2022-09-06T01:36:29.202Z,79.99
2022-09-06T01:41:31.887Z,78.55
2022-09-06T01:47:17.899Z,78.68
2022-09-06T01:52:38.316Z,74.60
2022-09-06T01:58:29.970Z,76.24
2022-09-06T02:03:46.366Z,74.43
2022-09-06T02:08:57.575Z,76.75
2022-09-06T02:14:07.184Z,77.96
2022-09-06T02:19:18.022Z,78.34
2022-09-06T02:24:26.084Z,78.09
2022-09-06T02:29:27.959Z,77.92
2022-09-06T02:34:30.923Z,77.92
2022-09-06T02:39:32.755Z,78.22
2022-09-06T02:44:34.507Z,78.57
2022-09-06T02:49:36.366Z,78.94
2022-09-06T02:54:38.016Z,79.75
2022-09-06T02:59:39.827Z,79.36
2022-09-06T03:04:43.732Z,80.39
2022-09-06T03:09:45.324Z,80.39
2022-09-06T03:14:50.152Z,80.95
2022-09-06T03:19:54.696Z,79.81
2022-09-06T03:24:56.664Z,80.88
2022-09-06T03:29:58.558Z,80.84
2022-09-06T03:35:00.516Z,80.99
2022-09-06T03:40:06.519Z,81.35
2022-09-06T03:45:08.899Z,82.48
2022-09-06T03:50:10.874Z,83.17
2022-09-06T03:55:12.546Z,83.41
2022-09-06T04:00:15.016Z,83.46
2022-09-06T04:05:17.528Z,84.33
2022-09-06T04:10:19.304Z,84.63
2022-09-06T04:15:21.050Z,83.29
2022-09-06T04:20:23.570Z,82.81
2022-09-06T04:25:25.221Z,83.08
2022-09-06T04:30:27.915Z,82.97
2022-09-06T04:35:29.558Z,83.16
2022-09-06T04:40:31.282Z,83.39
2022-09-06T04:45:33.018Z,82.93
2022-09-06T04:50:34.969Z,82.28
2022-09-06T04:55:42.287Z,82.47
2022-09-06T05:00:44.976Z,82.48
2022-09-06T05:05:46.719Z,82.41
2022-09-06T05:10:51.473Z,83.07
2022-09-06T05:15:53.164Z,82.56
2022-09-06T05:20:55.150Z,82.75
2022-09-06T05:25:56.938Z,83.48
2022-09-06T05:31:13.216Z,83.30
2022-09-06T05:36:15.116Z,83.81
2022-09-06T05:41:16.763Z,84.25
2022-09-06T05:46:18.827Z,83.89
2022-09-06T05:51:20.668Z,84.46
2022-09-06T05:56:22.613Z,83.77
2022-09-06T06:01:31.423Z,83.42
2022-09-06T06:06:35.258Z,82.39
2022-09-06T06:11:37.218Z,82.84
2022-09-06T06:16:39.049Z,81.03
2022-09-06T06:21:40.850Z,81.32
2022-09-06T06:26:42.551Z,81.36
2022-09-06T06:31:44.260Z,81.91
2022-09-06T06:36:46.030Z,81.02
2022-09-06T06:41:49.841Z,80.75
2022-09-06T06:47:20.799Z,81.27
2022-09-06T06:52:24.419Z,82.14
2022-09-06T06:57:26.789Z,82.54
2022-09-06T07:02:29.541Z,82.28
2022-09-06T07:07:34.344Z,82.27
2022-09-06T07:12:38.260Z,81.04
2022-09-06T07:17:40.979Z,75.90
2022-09-06T07:22:42.852Z,75.00
2022-09-06T07:32:47.604Z,73.87
2022-09-06T07:38:07.126Z,73.74
2022-09-06T07:43:08.889Z,74.02
2022-09-06T07:48:10.693Z,72.94
2022-09-06T07:53:16.532Z,71.93
2022-09-06T07:58:23.722Z,72.26
2022-09-06T08:03:26.447Z,71.41
2022-09-06T08:13:55.679Z,70.20
2022-09-06T08:19:01.463Z,68.74
2022-09-06T08:24:06.891Z,68.06
2022-09-06T08:29:10.900Z,67.95
2022-09-06T08:34:14.194Z,67.91
2022-09-06T08:39:16.824Z,68.91
2022-09-06T08:50:07.539Z,68.56
2022-09-06T08:55:24.310Z,67.20
2022-09-06T09:00:26.164Z,67.51
2022-09-06T09:05:32.672Z,66.69
2022-09-06T09:10:50.425Z,64.84
2022-09-06T09:15:53.265Z,64.83
2022-09-06T09:20:55.392Z,63.15
2022-09-06T09:26:02.544Z,64.83
2022-09-06T09:31:05.273Z,65.12
2022-09-06T09:36:13.587Z,63.81
2022-09-06T09:41:30.300Z,64.02
2022-09-06T09:46:36.297Z,63.30
2022-09-06T09:51:42.929Z,63.87
2022-09-06T09:56:49.817Z,62.95
2022-09-06T10:02:01.136Z,63.66
2022-09-06T10:07:15.023Z,63.30
2022-09-06T10:12:19.164Z,64.33
2022-09-06T10:17:26.865Z,65.51
2022-09-06T10:22:35.516Z,64.33
2022-09-06T10:28:01.617Z,64.42
2022-09-06T10:33:35.191Z,64.42
2022-09-06T10:39:03.524Z,62.54
2022-09-06T10:44:33.820Z,62.70
2022-09-06T10:49:37.950Z,62.67
2022-09-06T10:54:42.122Z,61.74
2022-09-06T10:59:52.029Z,62.26
2022-09-06T11:10:29.283Z,61.60
2022-09-06T11:16:01.306Z,61.52
2022-09-06T11:21:40.600Z,59.95
2022-09-06T11:27:38.679Z,59.52
2022-09-06T11:32:48.686Z,56.27
2022-09-06T11:38:00.971Z,56.32
2022-09-06T11:43:03.233Z,56.90
2022-09-06T11:48:23.533Z,57.63
2022-09-06T11:53:25.345Z,56.75
2022-09-06T11:58:33.456Z,57.14
2022-09-06T12:04:09.865Z,55.11
2022-09-06T12:09:29.416Z,54.29
2022-09-06T12:14:34.417Z,54.42
2022-09-06T12:19:46.421Z,54.31
2022-09-06T12:24:48.406Z,53.19
2022-09-06T12:30:02.449Z,54.00
2022-09-06T12:40:36.871Z,52.50
2022-09-06T12:45:44.413Z,51.50
2022-09-06T12:50:46.192Z,52.00
2022-09-06T12:55:47.974Z,51.58
2022-09-06T13:00:53.179Z,51.29
2022-09-06T13:05:56.627Z,51.21
2022-09-06T13:11:00.483Z,51.27
2022-09-06T13:16:03.366Z,50.88
2022-09-06T13:21:18.926Z,49.88
2022-09-06T13:26:38.828Z,50.36
2022-09-06T13:31:45.538Z,50.54
2022-09-06T13:37:05.392Z,51.37
2022-09-06T13:42:23.416Z,50.92
2022-09-06T13:47:29.441Z,48.71
2022-09-06T13:52:31.208Z,49.28
2022-09-06T13:57:32.910Z,49.01
2022-09-06T14:02:34.852Z,50.54
2022-09-06T14:07:36.549Z,50.45
2022-09-06T14:12:38.261Z,48.93
2022-09-06T14:17:39.920Z,48.32
2022-09-06T14:22:43.718Z,48.11
2022-09-06T14:27:48.523Z,48.50
2022-09-06T14:32:50.346Z,47.01
2022-09-06T14:37:52.304Z,46.30
2022-09-06T14:42:54.046Z,45.49
2022-09-06T14:47:56.244Z,45.78
2022-09-06T14:52:58.378Z,45.63
2022-09-06T14:58:00.063Z,45.51
2022-09-06T15:03:01.726Z,45.88
2022-09-06T15:08:03.562Z,44.70
2022-09-06T15:13:06.298Z,45.26
2022-09-06T15:18:07.883Z,45.51
2022-09-06T15:23:26.302Z,45.02
2022-09-06T15:28:30.140Z,46.12
2022-09-06T15:33:33.562Z,45.09
2022-09-06T15:38:36.996Z,44.83
2022-09-06T15:43:42.158Z,44.76
2022-09-06T15:48:49.293Z,44.87
2022-09-06T15:53:50.968Z,45.05
2022-09-06T15:58:52.733Z,44.98
2022-09-06T16:04:06.152Z,44.38
2022-09-06T16:09:17.624Z,44.50
2022-09-06T16:14:19.478Z,45.73
2022-09-06T16:19:21.179Z,45.97
2022-09-06T16:24:23.340Z,45.27
2022-09-06T16:29:25.297Z,45.54
2022-09-06T16:34:27.490Z,44.51
2022-09-06T16:39:29.256Z,46.04
2022-09-06T16:44:31.149Z,46.30
2022-09-06T16:49:32.853Z,46.28
2022-09-06T16:54:34.519Z,46.73
2022-09-06T16:59:37.330Z,46.48
2022-09-06T17:04:39.093Z,45.84
2022-09-06T17:09:40.759Z,45.99
2022-09-06T17:14:42.927Z,46.54
2022-09-06T17:19:44.630Z,46.61
2022-09-06T17:24:46.266Z,47.27
2022-09-06T17:29:48.144Z,48.28
2022-09-06T17:34:50.234Z,47.64
2022-09-06T17:39:51.964Z,47.58
2022-09-06T17:44:53.697Z,48.17
2022-09-06T17:49:55.372Z,48.13
2022-09-06T17:54:57.042Z,49.05
2022-09-06T18:00:00.995Z,50.13
2022-09-06T18:05:02.768Z,49.57
2022-09-06T18:10:04.796Z,49.87
2022-09-06T18:15:07.148Z,51.65
2022-09-06T18:20:09.133Z,51.29
2022-09-06T18:25:11.064Z,52.54
2022-09-06T18:30:14.962Z,53.34
2022-09-06T18:35:17.263Z,54.51
2022-09-06T18:40:19.043Z,54.20
2022-09-06T18:45:22.759Z,53.77
2022-09-06T18:50:25.675Z,53.40
2022-09-06T18:55:27.280Z,53.06
2022-09-06T19:00:29.592Z,53.27
2022-09-06T19:05:36.549Z,56.24
2022-09-06T19:10:38.396Z,59.67
2022-09-06T19:15:43.246Z,58.18
2022-09-06T19:20:46.704Z,60.52
2022-09-06T19:25:56.807Z,57.65
2022-09-06T19:31:05.004Z,56.27
2022-09-06T19:36:11.813Z,55.04
2022-09-06T19:41:17.136Z,54.59
2022-09-06T19:46:19.828Z,55.00
2022-09-06T19:51:21.987Z,55.19
2022-09-06T19:56:26.735Z,55.25
2022-09-06T20:01:32.691Z,56.20
2022-09-06T20:06:36.486Z,55.67
2022-09-06T20:11:41.332Z,55.63
2022-09-06T20:16:45.494Z,55.75
2022-09-06T20:21:47.173Z,56.07
2022-09-06T20:26:51.129Z,56.41
2022-09-06T20:31:52.908Z,56.48
2022-09-06T20:36:54.599Z,60.62
2022-09-06T20:41:56.218Z,61.64
2022-09-06T20:46:58.085Z,59.12
2022-09-06T20:52:00.787Z,59.03
2022-09-06T20:57:03.852Z,58.81
2022-09-06T21:02:06.331Z,60.24
2022-09-06T21:07:09.243Z,60.76
2022-09-06T21:12:11.139Z,60.52
2022-09-06T21:17:12.763Z,64.81
2022-09-06T21:22:14.599Z,67.39
2022-09-06T21:27:16.732Z,66.82
2022-09-06T21:32:18.563Z,68.07
2022-09-06T21:37:20.375Z,69.06
2022-09-06T21:42:22.046Z,69.37
2022-09-06T21:47:23.711Z,71.21
2022-09-06T21:52:25.365Z,74.33
2022-09-06T21:57:28.096Z,78.55
2022-09-06T22:02:30.020Z,83.13
2022-09-06T22:07:32.112Z,83.79
2022-09-06T22:12:33.947Z,84.42
2022-09-06T22:17:35.727Z,84.60
2022-09-06T22:22:38.140Z,85.56
2022-09-06T22:27:40.692Z,84.85
2022-09-06T22:32:42.363Z,84.75
2022-09-06T22:37:44.112Z,84.71
2022-09-06T22:42:46.267Z,85.49
2022-09-06T22:47:51.016Z,85.06
2022-09-06T22:53:00.868Z,84.10
2022-09-06T22:58:03.879Z,84.55
2022-09-06T23:03:05.546Z,83.96
2022-09-06T23:08:08.362Z,84.19
2022-09-06T23:13:10.975Z,82.39
2022-09-06T23:18:13.988Z,83.27
2022-09-06T23:23:15.776Z,84.18
2022-09-06T23:28:17.496Z,82.79
2022-09-06T23:33:19.163Z,84.00
2022-09-06T23:38:20.855Z,84.25
2022-09-06T23:43:22.650Z,86.35
2022-09-06T23:48:24.823Z,85.36
2022-09-06T23:53:26.692Z,86.36
2022-09-06T23:58:28.537Z,85.53
